createdAt,value
2022-10-02T00:02:33.243Z,96.40
2022-10-02T00:05:03.878Z,96.50
2022-10-02T00:07:40.791Z,96.40
2022-10-02T00:10:23.076Z,96.50
2022-10-02T00:13:13.591Z,96.60
2022-10-02T00:15:49.513Z,96.60
2022-10-02T00:18:29.657Z,96.60
2022-10-02T00:21:32.987Z,96.70
2022-10-02T00:24:12.407Z,96.70
2022-10-02T00:26:56.677Z,96.60
2022-10-02T00:29:39.797Z,96.60
2022-10-02T00:32:45.790Z,96.50
2022-10-02T00:35:42.092Z,96.40
2022-10-02T00:38:30.567Z,96.60
2022-10-02T00:41:23.503Z,96.70
2022-10-02T00:44:19.550Z,96.60
2022-10-02T00:47:52.019Z,96.20
2022-10-02T00:50:40.114Z,95.90
2022-10-02T00:53:52.313Z,96.00
2022-10-02T00:57:02.375Z,95.60
2022-10-02T01:00:08.741Z,95.30
2022-10-02T01:03:15.935Z,95.30
2022-10-02T01:06:03.271Z,94.90
2022-10-02T01:08:38.793Z,94.70
2022-10-02T01:11:08.124Z,95.10
2022-10-02T01:13:39.159Z,95.00
2022-10-02T01:16:24.800Z,95.10
2022-10-02T01:18:52.591Z,95.20
2022-10-02T01:21:43.028Z,95.20
2022-10-02T01:24:28.815Z,94.90
2022-10-02T01:27:00.557Z,95.00
2022-10-02T01:29:38.736Z,95.00
2022-10-02T01:32:06.582Z,95.30
2022-10-02T01:34:39.893Z,95.40
2022-10-02T01:37:27.300Z,95.20
2022-10-02T01:40:23.561Z,95.10
2022-10-02T01:43:01.197Z,95.20
2022-10-02T01:46:19.546Z,95.30
2022-10-02T01:49:07.372Z,95.40
2022-10-02T01:51:59.479Z,95.20
2022-10-02T01:55:14.030Z,95.20
2022-10-02T01:58:23.065Z,95.40
2022-10-02T02:01:37.253Z,95.40
2022-10-02T02:04:40.624Z,95.40
2022-10-02T02:07:36.063Z,95.20
2022-10-02T02:10:51.072Z,95.00
2022-10-02T02:13:50.527Z,95.00
2022-10-02T02:16:34.093Z,94.90
2022-10-02T02:20:06.592Z,94.90
2022-10-02T02:22:58.978Z,94.80
2022-10-02T02:25:32.255Z,94.50
2022-10-02T02:28:12.887Z,94.40
2022-10-02T02:30:52.128Z,94.50
2022-10-02T02:33:45.005Z,94.00
2022-10-02T02:36:23.089Z,93.70
2022-10-02T02:39:21.933Z,93.90
2022-10-02T02:41:56.655Z,93.70
2022-10-02T02:44:38.767Z,93.60
2022-10-02T02:47:33.906Z,93.60
2022-10-02T02:50:44.600Z,93.40
2022-10-02T02:53:19.766Z,93.50
2022-10-02T02:56:02.235Z,93.20
2022-10-02T02:58:39.571Z,93.20
2022-10-02T03:01:15.438Z,93.10
2022-10-02T03:03:55.297Z,93.20
2022-10-02T03:06:47.505Z,93.40
2022-10-02T03:09:25.865Z,93.60
2022-10-02T03:12:33.935Z,93.20
2022-10-02T03:15:51.412Z,93.00
2022-10-02T03:18:34.227Z,93.20
2022-10-02T03:21:39.320Z,93.30
2022-10-02T03:24:53.072Z,93.40
2022-10-02T03:27:49.606Z,93.40
2022-10-02T03:30:24.925Z,93.60
2022-10-02T03:32:57.164Z,93.90
2022-10-02T03:35:38.089Z,93.90
2022-10-02T03:38:13.983Z,94.30
2022-10-02T03:40:54.899Z,94.30
2022-10-02T03:43:32.959Z,94.30
2022-10-02T03:46:06.884Z,94.30
2022-10-02T03:48:58.670Z,94.10
2022-10-02T03:51:27.000Z,94.20
2022-10-02T03:53:59.885Z,94.20
2022-10-02T03:56:42.920Z,94.40
2022-10-02T03:59:39.613Z,94.30
2022-10-02T04:02:17.526Z,94.30
2022-10-02T04:04:59.332Z,94.30
2022-10-02T04:07:37.977Z,94.20
2022-10-02T04:10:50.747Z,94.10
2022-10-02T04:13:54.374Z,94.00
2022-10-02T04:16:58.579Z,94.10
2022-10-02T04:19:47.319Z,94.10
2022-10-02T04:22:29.389Z,93.80
2022-10-02T04:25:22.462Z,94.10
2022-10-02T04:28:14.913Z,94.00
2022-10-02T04:31:19.535Z,94.00
2022-10-02T04:34:03.822Z,93.80
2022-10-02T04:36:59.871Z,93.80
2022-10-02T04:40:09.348Z,93.90
2022-10-02T04:43:12.371Z,93.80
2022-10-02T04:46:01.785Z,93.30
2022-10-02T04:48:56.771Z,93.30
2022-10-02T04:51:59.783Z,93.50
2022-10-02T04:54:36.124Z,93.40
2022-10-02T04:57:45.547Z,93.10
2022-10-02T05:00:22.725Z,93.30
2022-10-02T05:03:18.963Z,93.40
2022-10-02T05:06:18.180Z,93.40
2022-10-02T05:09:14.116Z,93.50
2022-10-02T05:12:31.679Z,93.70
2022-10-02T05:15:24.576Z,93.70
2022-10-02T05:18:28.910Z,93.40
2022-10-02T05:21:41.801Z,93.30
2022-10-02T05:24:49.046Z,93.40
2022-10-02T05:27:26.600Z,93.40
2022-10-02T05:33:47.389Z,93.40
2022-10-02T05:36:25.727Z,93.30
2022-10-02T05:38:53.381Z,93.00
2022-10-02T05:41:58.828Z,92.80
2022-10-02T05:44:50.111Z,92.70
2022-10-02T05:47:34.135Z,92.80
2022-10-02T05:50:13.710Z,92.70
2022-10-02T05:53:27.334Z,92.60
2022-10-02T05:56:19.115Z,92.40
2022-10-02T05:58:54.088Z,92.30
2022-10-02T06:01:36.040Z,92.50
2022-10-02T06:04:24.982Z,92.60
2022-10-02T06:07:00.215Z,92.90
2022-10-02T06:09:37.354Z,92.80
2022-10-02T06:12:14.914Z,92.60
2022-10-02T06:14:57.002Z,92.40
2022-10-02T06:17:37.564Z,91.90
2022-10-02T06:20:43.126Z,91.70
2022-10-02T06:26:09.806Z,91.50
2022-10-02T06:28:46.047Z,91.30
2022-10-02T06:31:37.893Z,91.50
2022-10-02T06:34:26.757Z,91.50
2022-10-02T06:37:13.554Z,91.00
2022-10-02T06:40:27.562Z,90.90
2022-10-02T06:43:14.430Z,90.90
2022-10-02T06:46:11.747Z,89.80
2022-10-02T06:49:27.783Z,89.70
2022-10-02T06:52:59.340Z,88.70
2022-10-02T06:55:41.054Z,88.50
2022-10-02T06:58:39.796Z,88.80
2022-10-02T07:01:31.016Z,88.40
2022-10-02T07:04:15.429Z,87.70
2022-10-02T07:07:01.124Z,87.50
2022-10-02T07:10:01.799Z,87.50
2022-10-02T07:13:14.499Z,87.20
2022-10-02T07:16:43.385Z,87.40
2022-10-02T07:19:55.942Z,87.50
2022-10-02T07:22:43.484Z,87.00
2022-10-02T07:25:20.121Z,85.90
2022-10-02T07:28:33.010Z,85.50
2022-10-02T07:31:15.745Z,85.80
2022-10-02T07:37:16.000Z,86.70
2022-10-02T07:39:56.514Z,87.00
2022-10-02T07:43:00.355Z,86.70
2022-10-02T07:45:33.229Z,86.50
2022-10-02T07:48:18.178Z,86.50
2022-10-02T07:51:47.536Z,86.20
2022-10-02T07:54:35.915Z,85.90
2022-10-02T07:57:45.421Z,85.90
2022-10-02T08:00:24.935Z,86.30
2022-10-02T08:03:23.935Z,86.00
2022-10-02T08:06:02.417Z,85.90
2022-10-02T08:08:58.510Z,85.50
2022-10-02T08:11:49.492Z,85.30
2022-10-02T08:14:45.593Z,84.70
2022-10-02T08:17:33.563Z,84.30
2022-10-02T08:20:14.231Z,84.00
2022-10-02T08:23:07.068Z,84.20
2022-10-02T08:26:28.265Z,81.70
2022-10-02T08:29:06.721Z,79.90
2022-10-02T08:31:40.325Z,77.00
2022-10-02T08:34:20.008Z,76.20
2022-10-02T08:36:58.098Z,73.80
2022-10-02T08:40:11.959Z,73.40
2022-10-02T08:43:12.086Z,73.70
2022-10-02T08:46:12.629Z,73.40
2022-10-02T08:49:20.305Z,72.60
2022-10-02T08:52:26.280Z,72.70
2022-10-02T08:55:19.616Z,72.00
2022-10-02T08:58:46.010Z,71.70
2022-10-02T09:01:59.976Z,69.20
2022-10-02T09:05:28.751Z,68.00
2022-10-02T09:08:24.174Z,67.60
2022-10-02T09:11:12.474Z,64.30
2022-10-02T09:14:26.734Z,62.40
2022-10-02T09:17:34.085Z,60.00
2022-10-02T09:20:14.133Z,60.10
2022-10-02T09:22:50.683Z,57.80
2022-10-02T09:25:54.587Z,58.30
2022-10-02T09:28:48.107Z,59.50
2022-10-02T09:31:54.484Z,60.20
2022-10-02T09:34:40.482Z,60.80
2022-10-02T09:37:40.229Z,60.10
2022-10-02T09:40:26.433Z,59.00
2022-10-02T09:43:06.180Z,58.40
2022-10-02T09:45:58.901Z,58.60
2022-10-02T09:49:11.560Z,59.00
2022-10-02T09:52:30.640Z,59.40
2022-10-02T09:55:55.086Z,59.90
2022-10-02T09:59:02.463Z,60.40
2022-10-02T10:01:55.634Z,61.00
2022-10-02T10:05:18.496Z,61.20
2022-10-02T10:08:25.282Z,60.20
2022-10-02T10:11:17.297Z,60.90
2022-10-02T10:14:37.494Z,60.20
2022-10-02T10:17:29.934Z,60.00
2022-10-02T10:20:54.693Z,60.30
2022-10-02T10:23:37.173Z,61.20
2022-10-02T10:26:52.288Z,62.50
2022-10-02T10:29:55.997Z,61.10
2022-10-02T10:33:05.760Z,61.80
2022-10-02T10:36:32.442Z,63.10
2022-10-02T10:39:39.381Z,63.90
2022-10-02T10:43:16.751Z,65.10
2022-10-02T10:46:24.015Z,66.00
2022-10-02T10:49:16.398Z,66.90
2022-10-02T10:52:23.164Z,67.30
2022-10-02T10:55:20.199Z,67.30
2022-10-02T10:58:22.002Z,67.20
2022-10-02T11:01:11.391Z,67.90
2022-10-02T11:04:24.245Z,67.10
2022-10-02T11:07:00.825Z,67.70
2022-10-02T11:10:33.999Z,68.80
2022-10-02T11:13:22.626Z,69.10
2022-10-02T11:16:17.101Z,69.90
2022-10-02T11:19:10.123Z,70.50
2022-10-02T11:22:03.564Z,70.40
2022-10-02T11:25:02.612Z,70.80
2022-10-02T11:27:52.504Z,71.00
2022-10-02T11:30:41.443Z,70.80
2022-10-02T11:37:17.388Z,70.80
2022-10-02T11:39:56.829Z,69.30
2022-10-02T11:43:11.525Z,69.80
2022-10-02T11:46:14.825Z,69.20
2022-10-02T11:49:03.332Z,70.30
2022-10-02T11:58:30.448Z,71.80
2022-10-02T12:01:35.852Z,71.80
2022-10-02T12:04:41.751Z,71.10
2022-10-02T12:07:43.675Z,70.70
2022-10-02T12:10:39.909Z,71.00
2022-10-02T12:13:25.048Z,71.60
2022-10-02T12:16:15.937Z,72.10
2022-10-02T12:18:52.355Z,71.80
2022-10-02T12:22:15.097Z,71.70
2022-10-02T12:25:38.811Z,72.10
2022-10-02T12:28:29.050Z,72.10
2022-10-02T12:31:29.003Z,71.80
2022-10-02T12:34:38.943Z,71.70
2022-10-02T12:37:32.656Z,71.10
2022-10-02T12:40:38.673Z,71.50
2022-10-02T12:43:30.801Z,71.70
2022-10-02T12:46:32.973Z,71.80
2022-10-02T12:49:35.502Z,73.20
2022-10-02T12:52:34.576Z,73.80
2022-10-02T12:58:34.711Z,74.80
2022-10-02T13:01:14.542Z,75.10
2022-10-02T13:04:41.393Z,75.50
2022-10-02T13:07:34.226Z,75.60
2022-10-02T13:10:17.838Z,75.70
2022-10-02T13:12:58.438Z,75.70
2022-10-02T13:15:44.991Z,75.80
2022-10-02T13:18:41.461Z,75.70
2022-10-02T13:21:29.145Z,76.00
2022-10-02T13:24:27.232Z,76.30
2022-10-02T13:27:06.950Z,76.30
2022-10-02T13:29:56.817Z,76.00
2022-10-02T13:32:56.315Z,75.90
2022-10-02T13:35:50.887Z,76.00
2022-10-02T13:38:49.721Z,75.70
2022-10-02T13:41:39.548Z,75.50
2022-10-02T13:44:35.687Z,75.50
2022-10-02T13:47:15.760Z,74.90
2022-10-02T13:49:58.054Z,74.60
2022-10-02T13:52:54.370Z,74.50
2022-10-02T13:55:45.800Z,74.00
2022-10-02T13:58:29.481Z,74.00
2022-10-02T14:01:15.040Z,74.50
2022-10-02T14:04:06.373Z,74.40
2022-10-02T14:06:47.762Z,74.50
2022-10-02T14:09:23.993Z,74.80
2022-10-02T14:12:34.744Z,75.10
2022-10-02T14:15:46.497Z,75.30
2022-10-02T14:18:50.105Z,75.70
2022-10-02T14:21:36.249Z,75.90
2022-10-02T14:24:15.938Z,75.90
2022-10-02T14:26:55.333Z,75.70
2022-10-02T14:30:10.452Z,75.60
2022-10-02T14:32:54.292Z,75.80
2022-10-02T14:35:47.922Z,75.80
2022-10-02T14:38:56.753Z,75.80
2022-10-02T14:41:57.411Z,76.00
2022-10-02T14:45:22.482Z,76.20
2022-10-02T14:48:17.841Z,76.30
2022-10-02T14:51:28.924Z,76.40
2022-10-02T14:54:25.048Z,76.70
2022-10-02T14:57:19.671Z,76.40
2022-10-02T15:00:42.904Z,76.60
2022-10-02T15:03:43.936Z,76.90
2022-10-02T15:06:29.054Z,76.90
2022-10-02T15:09:23.664Z,77.10
2022-10-02T15:12:14.513Z,77.40
2022-10-02T15:15:01.218Z,77.70
2022-10-02T15:21:40.519Z,78.10
2022-10-02T15:24:36.767Z,78.30
2022-10-02T15:27:20.231Z,78.50
2022-10-02T15:29:57.578Z,78.60
2022-10-02T15:32:36.196Z,78.80
2022-10-02T15:35:32.534Z,78.90
2022-10-02T15:38:18.779Z,79.10
2022-10-02T15:40:59.138Z,79.40
2022-10-02T15:44:01.222Z,79.50
2022-10-02T15:47:01.103Z,79.50
2022-10-02T15:50:10.770Z,79.70
2022-10-02T15:53:13.931Z,80.70
2022-10-02T15:55:45.192Z,80.80
2022-10-02T15:58:52.328Z,81.00
2022-10-02T16:01:58.821Z,81.20
2022-10-02T16:08:14.872Z,82.00
2022-10-02T16:13:51.756Z,82.60
2022-10-02T16:16:42.482Z,82.80
2022-10-02T16:19:36.906Z,82.80
2022-10-02T16:22:18.076Z,83.00
2022-10-02T16:24:58.498Z,83.10
2022-10-02T16:27:46.743Z,83.10
2022-10-02T16:30:32.257Z,83.10
2022-10-02T16:33:08.310Z,83.00
2022-10-02T16:35:56.529Z,83.00
2022-10-02T16:38:47.624Z,82.90
2022-10-02T16:41:43.107Z,82.70
2022-10-02T16:44:38.508Z,82.50
2022-10-02T16:47:36.471Z,82.50
2022-10-02T16:50:21.625Z,82.50
2022-10-02T16:53:24.583Z,82.50
2022-10-02T16:56:19.778Z,82.40
2022-10-02T16:59:10.019Z,82.30
2022-10-02T17:02:19.144Z,82.30
2022-10-02T17:05:17.057Z,82.10
2022-10-02T17:08:09.861Z,82.10
2022-10-02T17:11:08.965Z,82.10
2022-10-02T17:14:15.475Z,82.10
2022-10-02T17:17:06.242Z,82.20
2022-10-02T17:22:35.998Z,82.50
2022-10-02T17:25:26.528Z,82.60
2022-10-02T17:28:33.661Z,82.70
2022-10-02T17:31:15.000Z,82.80
2022-10-02T17:33:51.647Z,82.90
2022-10-02T17:37:09.455Z,83.00
2022-10-02T17:40:03.671Z,83.00
2022-10-02T17:42:46.429Z,83.10
2022-10-02T17:48:56.339Z,83.30
2022-10-02T17:51:53.564Z,83.10
2022-10-02T17:55:26.746Z,83.00
2022-10-02T17:58:16.882Z,82.80
2022-10-02T18:01:13.442Z,82.60
2022-10-02T18:04:16.063Z,82.50
2022-10-02T18:07:29.205Z,82.60
2022-10-02T18:10:39.099Z,82.50
2022-10-02T18:13:26.601Z,82.50
2022-10-02T18:16:22.615Z,82.60
2022-10-02T18:19:22.381Z,82.70
2022-10-02T18:22:10.958Z,82.70
2022-10-02T18:25:11.981Z,82.70
2022-10-02T18:28:40.239Z,82.70
2022-10-02T18:31:54.031Z,82.60
2022-10-02T18:34:44.177Z,82.80
2022-10-02T18:37:26.025Z,82.70
2022-10-02T18:40:31.399Z,82.80
2022-10-02T18:43:22.480Z,82.80
2022-10-02T18:46:27.762Z,83.00
2022-10-02T18:49:30.619Z,82.80
2022-10-02T18:52:31.770Z,82.70
2022-10-02T18:55:52.771Z,82.80
2022-10-02T18:58:24.459Z,82.90
2022-10-02T19:01:08.516Z,82.80
2022-10-02T19:04:10.648Z,82.90
2022-10-02T19:07:08.710Z,82.80
2022-10-02T19:09:41.541Z,83.00
2022-10-02T19:12:38.642Z,83.20
2022-10-02T19:15:25.572Z,83.20
2022-10-02T19:18:08.755Z,83.10
2022-10-02T19:20:49.304Z,83.30
2022-10-02T19:23:33.490Z,83.30
2022-10-02T19:26:19.363Z,83.50
2022-10-02T19:28:58.018Z,83.70
2022-10-02T19:31:31.041Z,84.00
2022-10-02T19:34:05.894Z,84.10
2022-10-02T19:36:52.311Z,84.40
2022-10-02T19:39:43.213Z,84.60
2022-10-02T19:42:21.339Z,84.70
2022-10-02T19:45:24.529Z,84.70
2022-10-02T19:48:03.924Z,84.60
2022-10-02T19:50:50.104Z,84.80
2022-10-02T19:53:41.873Z,84.90
2022-10-02T19:56:41.164Z,84.90
2022-10-02T19:59:41.985Z,84.80
2022-10-02T20:02:27.252Z,84.50
2022-10-02T20:04:59.196Z,84.50
2022-10-02T20:07:28.961Z,84.60
2022-10-02T20:10:06.853Z,84.50
2022-10-02T20:12:54.892Z,84.60
2022-10-02T20:16:37.098Z,84.80
2022-10-02T20:19:13.826Z,84.90
2022-10-02T20:21:48.234Z,85.20
2022-10-02T20:24:37.288Z,85.20
2022-10-02T20:27:17.524Z,85.30
2022-10-02T20:30:01.459Z,85.50
2022-10-02T20:32:47.294Z,85.50
2022-10-02T20:35:35.430Z,85.70
2022-10-02T20:38:38.015Z,85.90
2022-10-02T20:41:35.429Z,86.20
2022-10-02T20:44:06.395Z,86.30
2022-10-02T20:47:16.299Z,86.60
2022-10-02T20:50:18.071Z,86.70
2022-10-02T20:53:32.369Z,86.90
2022-10-02T20:56:31.578Z,87.20
2022-10-02T20:59:15.065Z,87.50
2022-10-02T21:02:17.562Z,87.60
2022-10-02T21:05:05.744Z,87.60
2022-10-02T21:08:07.012Z,87.60
2022-10-02T21:10:54.716Z,87.70
2022-10-02T21:13:41.472Z,87.80
2022-10-02T21:16:39.150Z,87.80
2022-10-02T21:19:53.347Z,87.70
2022-10-02T21:22:37.944Z,87.70
2022-10-02T21:25:34.626Z,87.60
2022-10-02T21:28:31.951Z,87.70
2022-10-02T21:31:33.453Z,87.80
2022-10-02T21:34:41.865Z,87.70
2022-10-02T21:37:52.181Z,87.80
2022-10-02T21:40:57.451Z,87.80
2022-10-02T21:43:38.017Z,87.90
2022-10-02T21:47:02.447Z,87.70
2022-10-02T21:50:08.512Z,87.60
2022-10-02T21:53:02.706Z,87.60
2022-10-02T21:56:23.384Z,87.60
2022-10-02T22:02:42.163Z,87.80
2022-10-02T22:05:48.948Z,88.00
2022-10-02T22:09:09.005Z,87.80
2022-10-02T22:12:09.734Z,87.90
2022-10-02T22:14:53.891Z,88.00
2022-10-02T22:18:03.287Z,88.20
2022-10-02T22:20:42.728Z,88.20
2022-10-02T22:23:25.400Z,88.40
2022-10-02T22:26:21.626Z,88.60
2022-10-02T22:29:18.573Z,88.60
2022-10-02T22:32:36.308Z,88.70
2022-10-02T22:35:27.709Z,88.70
2022-10-02T22:38:28.063Z,88.70
2022-10-02T22:41:20.913Z,88.90
2022-10-02T22:44:13.868Z,89.00
2022-10-02T22:47:22.430Z,89.00
2022-10-02T22:50:04.042Z,89.10
2022-10-02T22:52:42.704Z,89.10
2022-10-02T22:55:26.571Z,89.00
2022-10-02T22:58:21.697Z,89.10
2022-10-02T23:01:28.904Z,89.10
2022-10-02T23:04:20.176Z,89.00
2022-10-02T23:07:06.559Z,89.10
2022-10-02T23:10:23.773Z,89.10
2022-10-02T23:13:04.598Z,89.20
2022-10-02T23:15:54.965Z,89.20
2022-10-02T23:18:59.994Z,89.20
2022-10-02T23:22:02.973Z,89.20
2022-10-02T23:24:54.092Z,89.00
2022-10-02T23:27:30.205Z,89.00
2022-10-02T23:30:02.840Z,88.90
2022-10-02T23:32:55.148Z,89.00
2022-10-02T23:35:50.006Z,89.00
2022-10-02T23:39:00.474Z,89.10
2022-10-02T23:41:46.565Z,89.10
2022-10-02T23:44:19.802Z,89.00
2022-10-02T23:46:50.318Z,89.00
2022-10-02T23:50:02.617Z,89.10
2022-10-02T23:52:55.726Z,89.10
2022-10-02T23:56:08.639Z,89.20
2022-10-02T23:58:49.381Z,89.30
